Time;durP1;ratioP1;P1;durP2;ratioP2;P2;SDS_P1;SDS_P2;PMS_P1;PMS_P2;Temp;Humidity;BMP_temperature;BMP_pressure;BME280_temperature;BME280_humidity;BME280_pressure;Samples;Min_cycle;Max_cycle;Signal;HPM_P1;HPM_P2
2022/07/01 00:01:32;;;;;;;;;0.50;0.50;;;;;17.58;100.00;101351.81;5075336;28;45330;-81
2022/07/01 00:03:59;;;;;;;;;3.00;1.00;;;;;17.57;100.00;101350.03;5076092;27;45375;-81
2022/07/01 00:06:24;;;;;;;;;1.00;1.00;;;;;17.55;100.00;101352.59;5075887;28;45465;-81
2022/07/01 00:08:50;;;;;;;;;1.00;1.00;;;;;17.51;100.00;101347.25;5075826;27;46450;-81
2022/07/01 00:11:16;;;;;;;;;1.50;1.00;;;;;17.51;100.00;101357.72;5057033;28;45461;-81
2022/07/01 00:13:41;;;;;;;;;1.00;1.00;;;;;17.48;100.00;101348.97;5075896;28;45383;-82
2022/07/01 00:16:07;;;;;;;;;2.00;2.00;;;;;17.45;100.00;101351.50;5076181;28;45434;-81
2022/07/01 00:18:33;;;;;;;;;1.00;1.00;;;;;17.37;100.00;101358.28;5075846;28;45276;-81
2022/07/01 00:21:00;;;;;;;;;2.00;2.00;;;;;17.33;100.00;101359.03;5075657;28;45287;-81
2022/07/01 00:23:27;;;;;;;;;2.75;1.75;;;;;17.29;100.00;101367.63;5075727;28;45528;-80
2022/07/01 00:25:53;;;;;;;;;2.25;1.00;;;;;17.29;100.00;101368.53;5076150;27;45975;-80
2022/07/01 00:28:19;;;;;;;;;3.00;2.25;;;;;17.31;100.00;101364.22;5075315;28;46064;-80
2022/07/01 00:30:45;;;;;;;;;2.00;2.00;;;;;17.32;100.00;101370.34;5057114;28;45767;-81
2022/07/01 00:33:10;;;;;;;;;1.00;1.00;;;;;17.29;100.00;101365.91;5078458;27;45312;-82
2022/07/01 00:35:36;;;;;;;;;2.00;1.00;;;;;17.25;100.00;101371.91;5079576;27;45297;-80
2022/07/01 00:38:02;;;;;;;;;3.00;1.75;;;;;17.27;100.00;101369.34;5078590;27;46066;-81
2022/07/01 00:40:28;;;;;;;;;0.00;0.00;;;;;17.27;100.00;101364.13;5078822;28;45316;-80
2022/07/01 00:42:54;;;;;;;;;1.50;0.50;;;;;17.27;100.00;101370.22;5079009;27;45449;-81
2022/07/01 00:45:19;;;;;;;;;1.25;1.25;;;;;17.24;100.00;101374.50;5078946;28;45174;-81
2022/07/01 00:47:45;;;;;;;;;1.00;1.00;;;;;17.21;100.00;101377.03;5078976;28;45881;-80
2022/07/01 00:50:14;;;;;;;;;4.00;1.50;;;;;17.23;100.00;101388.41;5078586;28;45292;-81
2022/07/01 00:52:42;;;;;;;;;2.00;2.00;;;;;17.23;100.00;101384.06;5078865;28;45237;-81
2022/07/01 00:55:10;;;;;;;;;2.25;2.00;;;;;17.21;100.00;101388.38;5078955;28;45432;-79
2022/07/01 00:57:37;;;;;;;;;2.00;2.00;;;;;17.20;100.00;101386.63;5078908;28;46013;-81
2022/07/01 01:00:09;;;;;;;;;0.75;0.75;;;;;17.20;100.00;101391.84;5079006;28;45390;-81
2022/07/01 01:02:36;;;;;;;;;1.25;1.00;;;;;17.19;100.00;101384.84;5078951;28;45329;-81
2022/07/01 01:05:06;;;;;;;;;0.75;0.75;;;;;17.14;100.00;101389.94;5078994;28;45368;-81
2022/07/01 01:07:33;;;;;;;;;1.00;1.00;;;;;17.14;100.00;101389.03;5078256;28;47098;-82
2022/07/01 01:10:02;;;;;;;;;2.00;2.00;;;;;17.15;100.00;101390.81;5078467;28;45275;-81
2022/07/01 01:12:28;;;;;;;;;3.25;2.00;;;;;17.14;100.00;101397.81;5077857;28;45363;-81
2022/07/01 01:14:55;;;;;;;;;2.25;2.00;;;;;17.10;100.00;101392.44;5079020;28;45325;-81
2022/07/01 01:17:22;;;;;;;;;2.75;2.00;;;;;17.10;100.00;101401.16;5078524;27;45404;-81
2022/07/01 01:19:48;;;;;;;;;2.00;1.00;;;;;17.11;100.00;101394.22;5078789;28;45287;-81
2022/07/01 01:22:15;;;;;;;;;2.00;2.00;;;;;17.09;100.00;101396.78;5078785;28;45406;-81
2022/07/01 01:24:44;;;;;;;;;1.00;1.00;;;;;17.10;100.00;101402.91;5078719;27;45410;-81
2022/07/01 01:27:09;;;;;;;;;1.00;1.00;;;;;17.09;100.00;101401.13;5077994;28;46419;-81
2022/07/01 01:29:36;;;;;;;;;1.75;1.75;;;;;17.07;100.00;101403.69;5077926;27;45438;-81
2022/07/01 01:32:06;;;;;;;;;3.75;2.00;;;;;17.05;100.00;101410.63;5078407;28;45308;-80
2022/07/01 01:34:37;;;;;;;;;3.00;2.00;;;;;17.04;100.00;101421.03;5060179;28;45536;-81
2022/07/01 01:37:04;;;;;;;;;1.25;1.00;;;;;17.01;100.00;101419.22;5078613;28;45913;-81
2022/07/01 01:39:30;;;;;;;;;3.00;2.00;;;;;17.00;100.00;101420.06;5077871;28;45178;-81
2022/07/01 01:41:56;;;;;;;;;1.00;1.00;;;;;17.00;100.00;101413.13;5078202;28;45415;-79
2022/07/01 01:44:21;;;;;;;;;1.00;1.00;;;;;16.98;100.00;101421.75;5077407;28;45421;-79
2022/07/01 01:46:47;;;;;;;;;1.75;1.75;;;;;16.98;100.00;101416.53;5077804;28;46198;-82
2022/07/01 01:49:13;;;;;;;;;2.00;2.00;;;;;16.97;100.00;101428.72;5077390;28;45387;-81
2022/07/01 01:51:39;;;;;;;;;2.25;2.25;;;;;16.94;100.00;101420.78;5077976;27;45380;-81
2022/07/01 01:54:05;;;;;;;;;2.00;2.00;;;;;16.92;100.00;101418.94;5078451;27;45505;-81
2022/07/01 01:56:31;;;;;;;;;2.00;2.00;;;;;16.90;100.00;101431.94;5077436;28;46135;-81
2022/07/01 01:58:57;;;;;;;;;2.25;2.25;;;;;16.89;100.00;101427.59;5077728;28;45545;-81
2022/07/01 02:01:24;;;;;;;;;1.75;1.75;;;;;16.85;100.00;101431.81;5077740;27;45425;-81
2022/07/01 02:03:51;;;;;;;;;1.25;1.25;;;;;16.83;100.00;101427.41;5078052;28;45530;-81
2022/07/01 02:06:19;;;;;;;;;2.50;1.75;;;;;16.80;100.00;101428.22;5077439;28;45974;-82
2022/07/01 02:08:44;;;;;;;;;3.50;3.00;;;;;16.82;100.00;101434.38;5077884;27;45836;-81
2022/07/01 02:11:10;;;;;;;;;2.00;2.00;;;;;16.79;100.00;101433.41;5077644;27;45351;-81
2022/07/01 02:13:37;;;;;;;;;2.25;2.25;;;;;16.80;100.00;101437.75;5078425;27;45440;-81
2022/07/01 02:16:03;;;;;;;;;5.50;2.25;;;;;16.75;100.00;101439.38;5077443;28;45384;-82
2022/07/01 02:18:30;;;;;;;;;2.00;2.00;;;;;16.72;100.00;101432.34;5077277;28;45680;-81
2022/07/01 02:20:55;;;;;;;;;3.25;3.00;;;;;16.71;100.00;101439.28;5077972;28;45419;-81
2022/07/01 02:23:21;;;;;;;;;3.00;2.25;;;;;16.68;100.00;101433.06;5077483;28;45568;-80
2022/07/01 02:25:48;;;;;;;;;2.75;2.75;;;;;16.68;100.00;101430.44;5077089;28;45501;-81
2022/07/01 02:28:14;;;;;;;;;2.00;2.00;;;;;16.63;100.00;101432.06;5077131;28;45767;-81
2022/07/01 02:30:39;;;;;;;;;3.50;3.50;;;;;16.62;100.00;101445.97;5077037;27;45424;-80
2022/07/01 02:33:06;;;;;;;;;3.00;3.00;;;;;16.61;100.00;101445.06;5077910;28;45374;-81
2022/07/01 02:35:36;;;;;;;;;3.00;2.75;;;;;16.62;100.00;101446.84;5076845;28;46142;-81
2022/07/01 02:38:02;;;;;;;;;2.00;2.00;;;;;16.62;100.00;101452.06;5077284;27;45380;-82
2022/07/01 02:40:28;;;;;;;;;5.00;2.75;;;;;16.61;100.00;101452.03;5076868;27;45497;-81
2022/07/01 02:42:54;;;;;;;;;5.50;4.00;;;;;16.62;100.00;101449.47;5077728;28;45386;-81
2022/07/01 02:45:19;;;;;;;;;3.25;3.00;;;;;16.61;100.00;101450.28;5076693;28;45375;-81
2022/07/01 02:47:45;;;;;;;;;3.25;1.25;;;;;16.61;100.00;101455.53;5077037;28;45584;-81
2022/07/01 02:50:12;;;;;;;;;4.00;4.00;;;;;16.63;100.00;101450.38;5076897;28;46332;-81
2022/07/01 02:52:40;;;;;;;;;6.00;4.50;;;;;16.62;100.00;101452.06;5077168;28;45508;-80
2022/07/01 02:55:08;;;;;;;;;2.00;2.00;;;;;16.62;100.00;101454.69;5075696;27;46158;-81
2022/07/01 02:57:34;;;;;;;;;5.50;4.00;;;;;16.62;100.00;101461.66;5077082;28;45836;-80
2022/07/01 03:00:00;;;;;;;;;4.00;4.00;;;;;16.59;100.00;101459.81;5076848;28;45260;-80
2022/07/01 03:02:27;;;;;;;;;3.00;3.00;;;;;16.56;100.00;101465.84;5076984;27;45546;-80
2022/07/01 03:04:53;;;;;;;;;4.00;3.00;;;;;16.56;100.00;101458.00;5076692;27;46018;-80
2022/07/01 03:07:20;;;;;;;;;2.75;2.75;;;;;16.56;100.00;101465.84;5076659;28;45303;-81
2022/07/01 03:09:46;;;;;;;;;4.00;4.00;;;;;16.54;100.00;101459.69;5076446;27;45472;-80
2022/07/01 03:12:24;;;;;;;;;3.00;3.00;;;;;16.50;100.00;101460.44;5076322;27;45520;-81
2022/07/01 03:15:15;;;;;;;;;3.00;3.00;;;;;16.48;100.00;101455.97;5076513;28;46118;-81
2022/07/01 03:17:43;;;;;;;;;3.50;2.00;;;;;16.46;100.00;101461.19;5058394;28;45389;-80
2022/07/01 03:20:12;;;;;;;;;2.00;2.00;;;;;16.44;100.00;101462.84;5076233;28;45327;-81
2022/07/01 03:22:38;;;;;;;;;3.00;3.00;;;;;16.44;100.00;101469.81;5076819;28;45545;-78
2022/07/01 03:25:05;;;;;;;;;3.75;2.25;;;;;16.43;100.00;101465.44;5058212;28;45313;-82
2022/07/01 03:27:32;;;;;;;;;3.00;2.75;;;;;16.40;100.00;101466.22;5076167;28;45193;-81
2022/07/01 03:29:57;;;;;;;;;1.75;1.50;;;;;16.40;100.00;101466.22;5076545;28;45394;-81
2022/07/01 03:32:23;;;;;;;;;2.00;1.50;;;;;16.38;100.00;101478.34;5079700;27;45344;-80
2022/07/01 03:34:51;;;;;;;;;2.00;2.00;;;;;16.34;100.00;101477.38;5096612;27;45333;-81
2022/07/01 03:37:18;;;;;;;;;2.00;2.00;;;;;16.31;100.00;101474.66;5096645;27;45755;-80
2022/07/01 03:39:44;;;;;;;;;3.00;2.00;;;;;16.32;100.00;101483.38;5077842;27;45436;-81
2022/07/01 03:42:10;;;;;;;;;2.00;2.00;;;;;16.33;100.00;101486.03;5094740;27;45476;-80
2022/07/01 03:44:37;;;;;;;;;2.00;2.00;;;;;16.33;100.00;101492.97;5079977;27;45564;-81
2022/07/01 03:47:05;;;;;;;;;2.75;2.75;;;;;16.29;100.00;101488.50;5096617;27;45317;-80
2022/07/01 03:49:32;;;;;;;;;1.50;1.50;;;;;16.30;100.00;101496.38;5061355;28;45557;-80
2022/07/01 03:51:57;;;;;;;;;1.00;1.00;;;;;16.27;100.00;101495.41;5076368;28;45536;-81
2022/07/01 03:54:29;;;;;;;;;1.00;1.00;;;;;16.23;100.00;101503.13;5075627;28;45434;-79
2022/07/01 03:57:15;;;;;;;;;1.50;1.50;;;;;16.16;100.00;101498.56;5090883;27;45337;-80
2022/07/01 03:59:40;;;;;;;;;1.50;1.50;;;;;16.15;100.00;101501.09;5078804;27;45460;-79
2022/07/01 04:02:07;;;;;;;;;2.75;2.75;;;;;16.12;100.00;101503.63;5076049;28;45574;-80
2022/07/01 04:04:34;;;;;;;;;1.00;1.00;;;;;16.08;100.00;101502.66;5076089;28;46200;-79
2022/07/01 04:07:01;;;;;;;;;1.00;0.75;;;;;16.11;100.00;101504.47;5077542;28;45344;-79
2022/07/01 04:09:28;;;;;;;;;1.00;1.00;;;;;16.06;100.00;101513.03;5079254;28;45481;-81
2022/07/01 04:11:54;;;;;;;;;1.75;1.75;;;;;16.05;100.00;101510.38;5079801;27;45442;-80
2022/07/01 04:14:20;;;;;;;;;2.00;2.00;;;;;16.03;100.00;101507.72;5079174;27;45463;-83
2022/07/01 04:16:46;;;;;;;;;3.50;1.00;;;;;16.06;100.00;101509.53;5079263;28;45252;-85
2022/07/01 04:19:14;;;;;;;;;2.00;2.00;;;;;16.08;100.00;101508.75;5079494;28;45375;-84
2022/07/01 04:24:24;;;;;;;;;1.00;1.00;;;;;16.06;100.00;101514.78;5079142;28;45279;-84
2022/07/01 04:26:51;;;;;;;;;2.00;2.00;;;;;16.04;100.00;101517.31;5084389;28;45570;-85
2022/07/01 04:29:17;;;;;;;;;4.00;2.50;;;;;16.03;100.00;101527.72;5080186;28;45428;-84
2022/07/01 04:31:43;;;;;;;;;2.75;1.75;;;;;16.00;100.00;101531.13;5079517;28;45422;-84
2022/07/01 04:34:09;;;;;;;;;0.75;0.75;;;;;15.97;100.00;101535.34;5078953;28;45656;-83
2022/07/01 04:36:35;;;;;;;;;0.00;0.00;;;;;15.94;100.00;101534.41;5079283;28;45443;-84
2022/07/01 04:39:03;;;;;;;;;2.75;2.75;;;;;15.92;100.00;101530.84;5078884;28;45311;-83
2022/07/01 04:44:13;;;;;;;;;1.50;1.50;;;;;15.89;100.00;101524.63;5078646;28;45385;-84
2022/07/01 04:46:39;;;;;;;;;1.50;1.50;;;;;15.88;100.00;101531.56;5078895;28;45237;-82
2022/07/01 04:49:04;;;;;;;;;1.50;1.50;;;;;15.87;100.00;101534.13;5077696;28;45345;-82
2022/07/01 04:51:30;;;;;;;;;3.25;2.50;;;;;15.85;100.00;101543.63;5078815;27;45647;-82
2022/07/01 04:53:56;;;;;;;;;2.25;1.50;;;;;15.85;100.00;101543.63;5079225;27;45410;-81
2022/07/01 04:56:22;;;;;;;;;1.50;1.50;;;;;15.82;100.00;101539.16;5079165;27;45496;-84
2022/07/01 04:58:48;;;;;;;;;3.75;2.00;;;;;15.79;100.00;101539.97;5060562;28;45342;-84
2022/07/01 05:01:14;;;;;;;;;2.00;2.00;;;;;15.80;100.00;101546.06;5078796;28;45460;-85
2022/07/01 05:03:39;;;;;;;;;2.50;1.75;;;;;15.81;100.00;101546.97;5078445;27;45997;-84
2022/07/01 05:06:05;;;;;;;;;3.00;2.00;;;;;15.78;100.00;101551.22;5078451;27;45388;-84
2022/07/01 05:08:31;;;;;;;;;1.75;1.75;;;;;15.77;100.00;101553.78;5060329;27;45436;-83
2022/07/01 05:10:57;;;;;;;;;2.50;2.50;;;;;15.75;100.00;101551.13;5059814;28;45386;-84
2022/07/01 05:13:23;;;;;;;;;3.75;3.50;;;;;15.73;100.00;101550.16;5059768;28;46708;-84
2022/07/01 05:15:49;;;;;;;;;4.00;4.00;;;;;15.74;100.00;101557.16;5078247;28;46312;-84
2022/07/01 05:23:43;;;;;;;;;3.00;3.00;;;;;15.74;100.00;101556.28;5076721;27;45800;-79
2022/07/01 05:26:09;;;;;;;;;3.50;3.50;;;;;15.71;100.00;101548.34;5062050;28;45285;-78
2022/07/01 05:28:36;;;;;;;;;3.50;3.50;;;;;15.71;100.00;101546.59;5066958;28;45397;-78
2022/07/01 05:31:01;;;;;;;;;5.50;4.50;;;;;15.74;100.00;101556.28;5078811;28;45447;-79
2022/07/01 05:33:27;;;;;;;;;3.00;3.00;;;;;15.74;100.00;101553.69;5077384;27;45972;-79
2022/07/01 05:35:53;;;;;;;;;6.25;4.00;;;;;15.72;100.00;101550.13;5085560;28;45521;-80
2022/07/01 05:38:19;;;;;;;;;2.75;2.25;;;;;15.70;100.00;101549.19;5077621;28;45489;-81
2022/07/01 05:40:44;;;;;;;;;4.00;4.00;;;;;15.72;100.00;101552.72;5081247;27;45327;-81
2022/07/01 05:43:10;;;;;;;;;3.50;2.75;;;;;15.69;100.00;101552.63;5077596;28;45555;-79
2022/07/01 05:45:37;;;;;;;;;3.25;1.75;;;;;15.69;100.00;101565.66;5078413;28;45896;-79
2022/07/01 05:48:03;;;;;;;;;3.00;1.75;;;;;15.67;100.00;101568.22;5077630;28;45224;-76
2022/07/01 05:50:29;;;;;;;;;3.25;3.25;;;;;15.69;100.00;101558.75;5081289;28;45519;-77
2022/07/01 05:52:54;;;;;;;;;2.50;2.50;;;;;15.75;100.00;101564.16;5077472;27;46085;-78
2022/07/01 05:55:20;;;;;;;;;2.50;2.50;;;;;15.77;100.00;101572.94;5076117;28;45488;-78
2022/07/01 05:57:46;;;;;;;;;2.50;2.50;;;;;15.77;100.00;101569.44;5077683;28;45415;-79
2022/07/01 06:00:12;;;;;;;;;3.00;2.75;;;;;15.77;100.00;101578.16;5077516;28;45446;-79
2022/07/01 06:02:38;;;;;;;;;0.75;0.75;;;;;15.80;100.00;101566.94;5077653;28;45334;-80
2022/07/01 06:05:04;;;;;;;;;4.25;4.25;;;;;15.80;100.00;101566.94;5077181;27;45457;-80
2022/07/01 06:07:34;;;;;;;;;0.75;0.75;;;;;15.79;100.00;101560.84;5077850;28;45388;-80
2022/07/01 06:09:59;;;;;;;;;1.50;1.50;;;;;15.83;100.00;101569.66;5076707;28;45430;-79
2022/07/01 06:12:30;;;;;;;;;3.00;2.00;;;;;15.84;100.00;101573.16;5077744;27;45481;-81
2022/07/01 06:14:55;;;;;;;;;3.25;2.50;;;;;15.85;100.00;101572.34;5073313;28;46306;-79
2022/07/01 06:17:21;;;;;;;;;4.50;1.75;;;;;15.87;100.00;101578.53;5076455;28;45452;-80
2022/07/01 06:19:46;;;;;;;;;2.75;2.50;;;;;15.87;100.00;101583.75;5077587;27;45498;-80
2022/07/01 06:22:16;;;;;;;;;2.75;2.75;;;;;15.90;100.00;101583.88;5076438;28;46085;-80
2022/07/01 06:24:42;;;;;;;;;1.50;1.50;;;;;15.90;100.00;101582.13;5074885;27;45434;-79
2022/07/01 06:27:07;;;;;;;;;2.00;2.00;;;;;15.93;100.00;101583.94;5076356;28;45469;-79
2022/07/01 06:29:34;;;;;;;;;4.25;1.25;;;;;15.97;100.00;101583.25;5089898;27;45482;-84
2022/07/01 06:32:03;;;;;;;;;2.25;1.50;;;;;15.98;100.00;101579.78;5097754;27;45644;-81
2022/07/01 06:34:29;;;;;;;;;2.25;1.50;;;;;16.06;100.00;101586.16;5081065;27;45412;-81
2022/07/01 06:36:55;;;;;;;;;3.50;2.50;;;;;16.11;100.00;101593.28;5076995;27;45344;-80
2022/07/01 06:39:21;;;;;;;;;1.50;1.25;;;;;16.12;100.00;101589.84;5043136;28;45394;-80
2022/07/01 06:41:47;;;;;;;;;2.25;1.50;;;;;16.12;100.00;101601.16;5080699;27;45519;-82
2022/07/01 06:44:13;;;;;;;;;1.50;1.00;;;;;16.08;100.00;101600.19;5090760;27;45461;-76
2022/07/01 06:46:39;;;;;;;;;3.00;1.25;;;;;16.09;100.00;101599.34;5074696;28;45755;-77
2022/07/01 06:49:04;;;;;;;;;2.00;1.00;;;;;16.11;100.00;101593.28;5075207;28;45438;-77
2022/07/01 06:51:30;;;;;;;;;1.00;0.75;;;;;16.12;100.00;101606.41;5083753;27;45483;-79
2022/07/01 06:53:56;;;;;;;;;2.75;0.75;;;;;16.15;100.00;101610.81;5076624;27;45408;-78
2022/07/01 06:56:23;;;;;;;;;1.00;1.00;;;;;16.17;100.00;101609.16;5076658;28;45438;-78
2022/07/01 06:58:48;;;;;;;;;1.00;0.75;;;;;16.13;100.00;101602.94;5076531;28;45561;-80
2022/07/01 07:01:14;;;;;;;;;3.25;1.75;;;;;16.17;100.00;101599.63;5074518;27;45785;-79
2022/07/01 07:03:39;;;;;;;;;2.75;0.75;;;;;16.20;100.00;101601.44;5078869;27;45918;-79
2022/07/01 07:06:06;;;;;;;;;3.75;2.00;;;;;16.23;100.00;101604.16;5075328;27;45333;-78
2022/07/01 07:08:35;;;;;;;;;1.00;1.00;;;;;16.26;100.00;101588.56;5076921;28;45301;-78
2022/07/01 07:11:02;;;;;;;;;2.25;1.00;;;;;16.31;100.00;101607.91;5078057;27;46881;-79
2022/07/01 07:13:28;;;;;;;;;2.50;0.75;;;;;16.33;100.00;101605.34;5080794;27;45844;-79
2022/07/01 07:15:54;;;;;;;;;1.00;0.75;;;;;16.38;100.00;101601.19;5087984;27;45557;-80
2022/07/01 07:18:21;;;;;;;;;0.75;0.75;;;;;16.38;100.00;101598.56;5084878;27;45489;-82
2022/07/01 07:20:49;;;;;;;;;0.75;0.75;;;;;16.40;100.00;101599.50;5084034;27;45427;-91
2022/07/01 07:23:15;;;;;;;;;0.50;0.00;;;;;16.40;100.00;101599.50;5076539;28;45744;-84
2022/07/01 07:25:40;;;;;;;;;0.50;0.00;;;;;16.39;100.00;101600.34;5066066;28;45442;-78
2022/07/01 07:28:06;;;;;;;;;1.00;0.75;;;;;16.37;100.00;101599.41;5081342;27;45497;-84
2022/07/01 07:30:32;;;;;;;;;0.50;0.00;;;;;16.34;100.00;101602.81;5077092;27;45969;-81
2022/07/01 07:32:57;;;;;;;;;1.00;0.00;;;;;16.33;100.00;101598.41;5076870;27;45390;-90
2022/07/01 07:35:23;;;;;;;;;1.75;0.50;;;;;16.36;100.00;101592.41;5080824;28;45220;-78
2022/07/01 07:37:48;;;;;;;;;0.00;0.00;;;;;16.37;100.00;101600.28;5088786;27;45235;-78
2022/07/01 07:40:17;;;;;;;;;0.75;0.75;;;;;16.38;100.00;101599.44;5063919;28;45589;-78
2022/07/01 07:42:45;;;;;;;;;0.50;0.50;;;;;16.44;100.00;101597.88;5071454;27;45481;-77
2022/07/01 07:45:11;;;;;;;;;2.25;0.75;;;;;16.44;100.00;101590.91;5069129;27;45465;-80
2022/07/01 07:47:38;;;;;;;;;0.00;0.00;;;;;16.49;100.00;101594.59;5079952;27;45571;-79
2022/07/01 07:50:04;;;;;;;;;8.00;4.75;;;;;16.52;100.00;101594.66;5077663;27;46689;-78
2022/07/01 07:52:30;;;;;;;;;1.00;1.00;;;;;16.58;98.52;101595.72;5090092;27;45701;-81
2022/07/01 07:54:56;;;;;;;;;0.75;0.75;;;;;16.58;98.32;101593.97;5084670;27;45278;-84
2022/07/01 07:57:22;;;;;;;;;1.25;0.00;;;;;16.60;93.83;101597.53;5058907;27;45664;-77
2022/07/01 07:59:48;;;;;;;;;0.00;0.00;;;;;16.60;93.60;101588.81;5087537;27;45936;-77
2022/07/01 08:02:14;;;;;;;;;0.75;0.75;;;;;16.64;94.25;101595.91;5075928;27;45849;-78
2022/07/01 08:04:39;;;;;;;;;0.00;0.00;;;;;16.68;93.03;101593.44;5080199;27;45476;-80
2022/07/01 08:07:05;;;;;;;;;1.50;0.00;;;;;16.72;87.80;101599.69;5076975;27;45419;-78
2022/07/01 08:09:34;;;;;;;;;0.00;0.00;;;;;16.70;86.82;101593.50;5076452;27;45417;-82
2022/07/01 08:12:03;;;;;;;;;0.00;0.00;;;;;16.76;84.42;101600.66;5075223;27;45236;-78
2022/07/01 08:14:29;;;;;;;;;0.00;0.00;;;;;16.80;81.78;101606.03;5075353;28;45427;-78
2022/07/01 08:16:55;;;;;;;;;0.00;0.00;;;;;16.79;81.59;101604.25;5088931;27;45635;-79
2022/07/01 08:19:20;;;;;;;;;0.00;0.00;;;;;16.82;80.21;101603.47;5095611;27;46392;-79
2022/07/01 08:21:46;;;;;;;;;0.25;0.00;;;;;16.84;82.14;101612.25;5077404;27;45547;-80
2022/07/01 08:24:12;;;;;;;;;1.50;0.00;;;;;16.86;80.40;101623.66;5069515;28;45325;-79
2022/07/01 08:26:37;;;;;;;;;0.00;0.00;;;;;16.87;78.88;101614.97;5076429;27;45395;-79
2022/07/01 08:29:03;;;;;;;;;0.00;0.00;;;;;16.86;78.31;101619.28;5075302;28;46063;-79
2022/07/01 08:31:31;;;;;;;;;0.50;0.00;;;;;16.90;76.67;101619.41;5057713;28;45299;-82
2022/07/01 08:33:57;;;;;;;;;0.00;0.00;;;;;16.92;78.12;101621.22;5078264;28;45245;-84
2022/07/01 08:36:23;;;;;;;;;0.00;0.00;;;;;16.96;78.20;101607.44;5078259;28;45319;-83
2022/07/01 08:38:49;;;;;;;;;0.50;0.50;;;;;17.01;78.61;101608.47;5075543;28;46097;-81
2022/07/01 08:41:15;;;;;;;;;0.00;0.00;;;;;17.06;77.83;101626.03;5075544;27;45406;-93
2022/07/01 08:43:41;;;;;;;;;0.00;0.00;;;;;17.06;77.90;101616.44;5076583;28;45430;-84
2022/07/01 08:46:07;;;;;;;;;0.75;0.00;;;;;17.07;77.83;101613.00;5075274;28;45620;-77
2022/07/01 08:48:34;;;;;;;;;0.00;0.00;;;;;17.12;78.25;101615.75;5079520;27;46200;-79
2022/07/01 08:51:03;;;;;;;;;2.25;1.50;;;;;17.14;78.65;101614.97;5067591;27;45488;-78
2022/07/01 08:53:31;;;;;;;;;0.50;0.50;;;;;17.22;79.08;101627.41;5079439;27;45872;-78
2022/07/01 08:58:45;;;;;;;;;0.75;0.75;;;;;17.29;79.72;101627.63;5058893;28;45381;-78
2022/07/01 09:01:22;;;;;;;;;2.00;0.00;;;;;17.40;78.42;101637.53;5074303;27;45222;-79
2022/07/01 09:03:52;;;;;;;;;1.00;1.00;;;;;17.41;76.34;101624.50;5059218;28;45415;-78
2022/07/01 09:06:18;;;;;;;;;2.00;0.00;;;;;17.50;74.12;101634.34;5059986;28;45563;-78
2022/07/01 09:08:45;;;;;;;;;3.00;1.00;;;;;17.54;74.33;101638.84;5078335;28;45891;-78
2022/07/01 09:11:12;;;;;;;;;0.00;0.00;;;;;17.58;72.73;101629.34;5078115;28;45311;-77
2022/07/01 09:13:38;;;;;;;;;0.75;0.00;;;;;17.65;71.25;101633.91;5078439;27;45349;-83
2022/07/01 09:16:14;;;;;;;;;0.00;0.00;;;;;17.73;71.03;101634.13;5077616;28;45832;-78
2022/07/01 09:18:40;;;;;;;;;2.00;0.00;;;;;17.74;70.75;101628.94;5078205;28;47023;-78
2022/07/01 09:21:13;;;;;;;;;0.00;0.00;;;;;17.76;72.27;101629.88;5074932;27;45371;-77
2022/07/01 09:23:39;;;;;;;;;1.00;0.25;;;;;17.85;71.57;101649.28;5039763;28;45458;-77
2022/07/01 09:26:05;;;;;;;;;0.25;0.25;;;;;17.92;70.45;101643.41;5057814;28;45847;-77
2022/07/01 09:28:31;;;;;;;;;0.50;0.00;;;;;17.95;70.03;101648.72;5057555;28;46133;-79
2022/07/01 09:30:58;;;;;;;;;0.00;0.00;;;;;17.98;70.46;101638.34;5069119;27;45375;-80
2022/07/01 09:33:28;;;;;;;;;0.00;0.00;;;;;17.97;71.69;101640.94;5098257;27;45372;-79
2022/07/01 09:35:56;;;;;;;;;0.25;0.00;;;;;18.06;71.58;101649.94;5094006;27;45392;-80
2022/07/01 09:38:23;;;;;;;;;0.25;0.00;;;;;18.15;71.89;101646.69;5077628;27;46472;-84
2022/07/01 09:40:59;;;;;;;;;0.00;0.00;;;;;18.27;72.06;101663.59;5089640;27;45416;-80
2022/07/01 09:43:30;;;;;;;;;0.00;0.00;;;;;18.35;69.54;101646.31;5060128;27;45457;-82
2022/07/01 09:46:02;;;;;;;;;0.00;0.00;;;;;18.43;69.12;101649.16;5078237;28;45856;-81
2022/07/01 09:48:44;;;;;;;;;0.00;0.00;;;;;18.45;67.75;101661.44;5059450;28;47596;-80
2022/07/01 09:51:11;;;;;;;;;0.75;0.75;;;;;18.49;69.06;101644.94;5078143;27;45343;-79
2022/07/01 09:53:37;;;;;;;;;2.00;0.00;;;;;18.56;69.79;101633.75;5060055;28;45441;-78
2022/07/01 09:56:03;;;;;;;;;0.00;0.00;;;;;18.63;69.53;101639.13;5058927;28;45478;-82
2022/07/01 09:58:32;;;;;;;;;1.00;1.00;;;;;18.63;69.34;101642.66;5077372;27;45542;-78
2022/07/01 10:00:57;;;;;;;;;0.00;0.00;;;;;18.63;68.44;101644.38;5081609;27;45250;-78
2022/07/01 10:03:26;;;;;;;;;0.50;0.50;;;;;18.62;68.64;101654.00;5077549;27;45318;-84
2022/07/01 10:06:10;;;;;;;;;0.00;0.00;;;;;18.61;63.58;101653.97;5077176;28;45221;-77
2022/07/01 10:08:44;;;;;;;;;0.00;0.00;;;;;18.57;63.25;101655.66;5075795;28;45597;-78
2022/07/01 10:11:44;;;;;;;;;0.00;0.00;;;;;18.55;63.70;101639.84;5075288;28;45732;-78
2022/07/01 10:14:13;;;;;;;;;1.00;0.00;;;;;18.52;64.85;101649.38;5077049;28;45381;-81
2022/07/01 10:16:40;;;;;;;;;0.00;0.00;;;;;18.56;64.68;101653.88;5077175;28;45407;-79
2022/07/01 10:19:30;;;;;;;;;0.00;0.00;;;;;18.67;65.49;101649.78;5076788;28;45639;-76
2022/07/01 10:22:00;;;;;;;;;0.00;0.00;;;;;18.81;63.31;101644.84;5076335;27;45491;-81
2022/07/01 10:24:26;;;;;;;;;0.00;0.00;;;;;18.92;62.07;101649.47;5080991;27;45453;-84
2022/07/01 10:26:58;;;;;;;;;0.00;0.00;;;;;19.00;62.42;101650.56;5077398;27;45651;-81
2022/07/01 10:29:38;;;;;;;;;0.00;0.00;;;;;19.14;61.73;101632.50;5075620;28;46057;-78
2022/07/01 10:32:04;;;;;;;;;0.00;0.00;;;;;19.25;62.21;101643.25;5076563;28;45349;-78
2022/07/01 10:34:40;;;;;;;;;0.00;0.00;;;;;19.30;61.01;101649.50;5076507;28;45365;-79
2022/07/01 10:37:11;;;;;;;;;0.00;0.00;;;;;19.32;59.39;101643.44;5076715;28;45454;-79
2022/07/01 10:40:00;;;;;;;;;1.00;0.00;;;;;19.29;59.72;101642.47;5076489;28;45422;-78
2022/07/01 10:42:55;;;;;;;;;0.00;0.00;;;;;19.22;58.27;101645.81;5076006;27;45687;-78
2022/07/01 10:45:20;;;;;;;;;1.50;0.00;;;;;19.17;59.53;101643.97;5077116;27;45411;-80
2022/07/01 10:47:46;;;;;;;;;1.75;0.00;;;;;19.20;59.99;101642.25;5075931;28;45437;-78
2022/07/01 10:50:15;;;;;;;;;2.00;1.00;;;;;19.23;60.08;101643.22;5077189;27;46180;-78
2022/07/01 10:53:01;;;;;;;;;0.00;0.00;;;;;19.32;59.68;101648.69;5076200;28;45272;-79
2022/07/01 10:55:44;;;;;;;;;0.00;0.00;;;;;19.48;59.69;101642.03;5077699;27;45394;-78
2022/07/01 10:58:09;;;;;;;;;1.00;1.00;;;;;19.75;57.90;101655.72;5060491;28;45403;-80
2022/07/01 11:00:36;;;;;;;;;0.00;0.00;;;;;19.95;59.09;101651.78;5079393;27;46116;-82
2022/07/01 11:03:22;;;;;;;;;0.00;0.00;;;;;20.16;57.27;101653.03;5077033;27;45716;-79
2022/07/01 11:05:55;;;;;;;;;0.00;0.00;;;;;20.21;56.33;101645.22;5081711;27;45447;-80
2022/07/01 11:08:21;;;;;;;;;0.75;0.00;;;;;20.16;56.59;101650.41;5077960;27;45500;-79
2022/07/01 11:10:54;;;;;;;;;0.00;0.00;;;;;20.09;57.54;101645.88;5076439;27;45336;-79
2022/07/01 11:13:20;;;;;;;;;0.00;0.00;;;;;20.08;56.90;101650.25;5076321;28;45356;-78
2022/07/01 11:15:47;;;;;;;;;0.00;0.00;;;;;20.13;58.02;101649.47;5076596;28;45345;-78
2022/07/01 11:18:14;;;;;;;;;0.00;0.00;;;;;20.23;57.55;101640.88;5076597;28;45346;-80
2022/07/01 11:20:40;;;;;;;;;2.00;0.00;;;;;20.31;56.14;101652.41;5084357;27;45325;-79
2022/07/01 11:23:06;;;;;;;;;0.00;0.00;;;;;20.24;56.79;101640.03;5058823;28;45287;-78
2022/07/01 11:25:32;;;;;;;;;0.75;0.00;;;;;20.12;57.46;101647.69;5076405;28;45422;-77
2022/07/01 11:27:58;;;;;;;;;0.00;0.00;;;;;20.01;57.34;101639.59;5058133;28;45512;-78
2022/07/01 11:30:24;;;;;;;;;1.00;1.00;;;;;19.96;58.91;101639.50;5075639;28;45451;-77
2022/07/01 11:32:55;;;;;;;;;0.00;0.00;;;;;20.00;58.34;101630.81;5076171;28;45449;-77
2022/07/01 11:41:24;;;;;;;;;0.00;0.00;;;;;20.28;53.90;101644.47;5076428;28;45284;-78